createdAt,value
2023-05-15T00:00:37.577Z,10.27
2023-05-15T00:04:40.609Z,11.32
2023-05-15T00:08:45.229Z,13.15
2023-05-15T00:12:48.127Z,11.55
2023-05-15T00:16:51.195Z,11.68
2023-05-15T00:20:54.010Z,18.30
2023-05-15T00:24:59.514Z,13.77
2023-05-15T00:29:02.363Z,13.10
2023-05-15T00:33:05.398Z,12.38
2023-05-15T00:37:08.528Z,14.82
2023-05-15T00:41:12.917Z,14.60
2023-05-15T00:45:16.500Z,13.95
2023-05-15T00:49:20.440Z,12.85
2023-05-15T00:53:23.398Z,14.80
2023-05-15T00:57:28.703Z,13.52
2023-05-15T01:01:34.503Z,14.20
2023-05-15T01:05:38.660Z,14.80
2023-05-15T01:09:44.711Z,16.25
2023-05-15T01:13:48.829Z,15.57
2023-05-15T01:17:52.607Z,17.05
2023-05-15T01:22:31.018Z,17.50
2023-05-15T01:27:03.157Z,15.70
2023-05-15T01:31:15.645Z,18.02
2023-05-15T01:35:24.393Z,19.48
2023-05-15T01:39:29.604Z,19.58
2023-05-15T01:43:34.718Z,16.98
2023-05-15T01:47:42.337Z,20.20
2023-05-15T01:51:45.632Z,19.48
2023-05-15T01:55:50.591Z,20.88
2023-05-15T01:59:55.089Z,18.40
2023-05-15T02:04:01.259Z,22.70
2023-05-15T02:08:05.459Z,18.20
2023-05-15T02:12:08.849Z,20.77
2023-05-15T02:16:11.780Z,22.55
2023-05-15T02:20:16.090Z,21.70
2023-05-15T02:24:19.191Z,22.17
2023-05-15T02:28:39.890Z,22.90
2023-05-15T02:32:48.297Z,18.52
2023-05-15T02:36:54.138Z,21.02
2023-05-15T02:40:58.937Z,16.77
2023-05-15T02:45:03.823Z,16.52
2023-05-15T02:49:06.795Z,15.85
2023-05-15T02:53:14.327Z,20.38
2023-05-15T02:57:17.197Z,17.02
2023-05-15T03:01:20.011Z,16.15
2023-05-15T03:05:23.294Z,14.20
2023-05-15T03:09:28.134Z,15.27
2023-05-15T03:13:30.952Z,15.55
2023-05-15T03:17:33.989Z,16.17
2023-05-15T03:21:36.827Z,15.65
2023-05-15T03:25:41.074Z,16.15
2023-05-15T03:29:44.104Z,14.55
2023-05-15T03:33:50.662Z,14.18
2023-05-15T03:37:53.507Z,15.85
2023-05-15T03:41:57.639Z,16.58
2023-05-15T03:46:00.516Z,16.70
2023-05-15T03:50:03.530Z,16.48
2023-05-15T03:54:09.506Z,17.90
2023-05-15T03:58:13.678Z,15.70
2023-05-15T04:02:16.526Z,18.95
2023-05-15T04:06:19.294Z,20.98
2023-05-15T04:10:22.172Z,16.67
2023-05-15T04:14:26.380Z,17.90
2023-05-15T04:18:29.230Z,19.35
2023-05-15T04:22:32.243Z,17.73
2023-05-15T04:26:35.282Z,16.88
2023-05-15T04:30:39.434Z,17.13
2023-05-15T04:34:42.485Z,18.38
2023-05-15T04:38:45.335Z,19.30
2023-05-15T04:42:48.116Z,16.65
2023-05-15T04:46:52.270Z,17.35
2023-05-15T04:50:55.107Z,19.10
2023-05-15T04:54:57.919Z,15.93
2023-05-15T04:59:01.012Z,20.45
2023-05-15T05:03:05.433Z,13.73
2023-05-15T05:07:08.303Z,16.60
2023-05-15T05:11:11.149Z,13.25
2023-05-15T05:15:14.098Z,14.25
2023-05-15T05:19:18.329Z,13.80
2023-05-15T05:23:21.164Z,12.75
2023-05-15T05:27:23.951Z,13.50
2023-05-15T05:31:26.762Z,13.77
2023-05-15T05:35:31.162Z,13.32
2023-05-15T05:39:33.972Z,13.93
2023-05-15T05:43:36.857Z,12.48
2023-05-15T05:47:39.756Z,11.10
2023-05-15T05:51:43.989Z,14.00
2023-05-15T05:55:47.139Z,14.38
2023-05-15T05:59:49.945Z,11.90
2023-05-15T06:03:52.852Z,10.95
2023-05-15T06:07:57.877Z,13.68
2023-05-15T06:12:04.490Z,12.05
2023-05-15T06:16:07.751Z,10.20
2023-05-15T06:20:12.065Z,9.55
2023-05-15T06:24:16.261Z,14.50
2023-05-15T06:28:19.075Z,10.77
2023-05-15T06:32:21.924Z,10.18
2023-05-15T06:36:24.804Z,9.63
2023-05-15T06:40:29.015Z,8.90
2023-05-15T06:44:32.071Z,8.15
2023-05-15T06:48:34.943Z,9.05
2023-05-15T06:52:37.744Z,10.02
2023-05-15T06:56:41.933Z,11.45
2023-05-15T07:00:44.777Z,7.72
2023-05-15T07:04:47.602Z,7.07
2023-05-15T07:08:50.547Z,10.85
2023-05-15T07:12:54.730Z,7.82
2023-05-15T07:16:57.561Z,12.38
2023-05-15T07:21:00.448Z,9.75
2023-05-15T07:25:04.153Z,10.68
2023-05-15T07:29:08.661Z,8.13
2023-05-15T07:33:12.363Z,10.10
2023-05-15T07:37:16.864Z,9.70
2023-05-15T07:41:19.935Z,11.02
2023-05-15T07:45:24.426Z,7.70
2023-05-15T07:49:27.459Z,7.65
2023-05-15T07:53:30.247Z,8.98
2023-05-15T07:57:33.067Z,6.45
2023-05-15T08:01:37.630Z,12.13
2023-05-15T08:05:40.483Z,6.22
2023-05-15T08:09:43.445Z,6.72
2023-05-15T08:13:46.254Z,7.88
2023-05-15T08:17:50.514Z,12.00
2023-05-15T08:21:53.307Z,6.72
2023-05-15T08:25:56.126Z,8.32
2023-05-15T08:29:58.889Z,5.35
2023-05-15T08:34:03.049Z,5.22
2023-05-15T08:38:06.160Z,7.15
2023-05-15T08:42:20.956Z,5.97
2023-05-15T08:46:24.798Z,6.35
2023-05-15T08:50:30.362Z,6.25
2023-05-15T08:54:33.453Z,4.97
2023-05-15T08:58:36.338Z,3.70
2023-05-15T09:02:39.810Z,4.93
2023-05-15T09:06:45.663Z,4.50
2023-05-15T09:10:49.493Z,3.38
2023-05-15T09:14:52.236Z,4.90
2023-05-15T09:18:55.377Z,4.40
2023-05-15T09:23:00.507Z,4.28
2023-05-15T09:27:05.137Z,5.30
2023-05-15T09:31:09.078Z,5.53
2023-05-15T09:35:30.167Z,4.72
2023-05-15T09:39:34.759Z,5.38
2023-05-15T09:43:39.245Z,5.57
2023-05-15T09:47:42.079Z,7.15
2023-05-15T09:51:45.354Z,6.25
2023-05-15T09:55:50.052Z,9.07
2023-05-15T09:59:52.850Z,9.82
2023-05-15T10:03:59.941Z,6.90
2023-05-15T10:08:03.256Z,10.63
2023-05-15T10:12:09.341Z,5.20
2023-05-15T10:16:13.984Z,7.05
2023-05-15T10:20:18.101Z,5.47
2023-05-15T10:24:22.292Z,6.75
2023-05-15T10:28:28.098Z,7.55
2023-05-15T10:32:31.164Z,5.25
2023-05-15T10:36:35.121Z,4.80
2023-05-15T10:40:39.206Z,4.07
2023-05-15T10:44:43.407Z,5.35
2023-05-15T10:48:46.365Z,4.00
2023-05-15T10:52:51.922Z,4.00
2023-05-15T10:56:57.213Z,3.97
2023-05-15T11:01:02.112Z,3.40
2023-05-15T11:05:05.783Z,3.77
2023-05-15T11:09:39.460Z,4.00
2023-05-15T11:14:20.652Z,7.03
2023-05-15T11:18:24.812Z,4.13
2023-05-15T11:22:32.585Z,2.65
2023-05-15T11:26:35.455Z,4.20
2023-05-15T11:30:40.011Z,3.08
2023-05-15T11:34:44.558Z,3.72
2023-05-15T11:38:51.782Z,3.95
2023-05-15T11:43:18.097Z,3.25
2023-05-15T11:47:22.004Z,5.15
2023-05-15T11:51:27.615Z,2.90
2023-05-15T11:55:31.857Z,3.88
2023-05-15T11:59:35.224Z,3.53
2023-05-15T12:03:38.331Z,2.65
2023-05-15T12:07:44.480Z,4.15
2023-05-15T12:11:51.726Z,8.38
2023-05-15T12:15:56.257Z,6.03
2023-05-15T12:19:59.416Z,8.30
2023-05-15T12:24:08.125Z,8.00
2023-05-15T12:28:12.760Z,5.70
2023-05-15T12:32:15.868Z,4.90
2023-05-15T12:36:21.327Z,6.30
2023-05-15T12:40:25.625Z,6.43
2023-05-15T12:44:29.321Z,6.78
2023-05-15T12:48:33.069Z,7.53
2023-05-15T12:52:35.892Z,7.22
2023-05-15T12:56:41.339Z,2.88
2023-05-15T13:00:46.019Z,3.38
2023-05-15T13:04:48.921Z,3.90
2023-05-15T13:08:51.692Z,3.80
2023-05-15T13:12:57.821Z,3.05
2023-05-15T13:17:02.726Z,4.97
2023-05-15T13:21:05.922Z,4.32
2023-05-15T13:25:10.099Z,3.50
2023-05-15T13:29:14.247Z,3.05
2023-05-15T13:33:17.043Z,3.03
2023-05-15T13:37:19.788Z,2.65
2023-05-15T13:41:22.563Z,2.20
2023-05-15T13:45:26.682Z,2.88
2023-05-15T13:49:29.576Z,4.15
2023-05-15T13:53:32.316Z,4.78
2023-05-15T13:57:35.165Z,3.72
2023-05-15T14:01:39.281Z,4.05
2023-05-15T14:05:42.053Z,5.82
2023-05-15T14:09:44.884Z,5.50
2023-05-15T14:13:47.716Z,7.47
2023-05-15T14:17:51.911Z,14.20
2023-05-15T14:21:54.785Z,6.63
2023-05-15T14:25:57.534Z,6.03
2023-05-15T14:30:00.344Z,4.43
2023-05-15T14:34:05.492Z,6.97
2023-05-15T14:38:08.465Z,6.35
2023-05-15T14:42:11.985Z,5.68
2023-05-15T14:46:14.965Z,4.93
2023-05-15T14:50:19.327Z,3.28
2023-05-15T14:54:22.169Z,5.20
2023-05-15T14:58:25.061Z,8.00
2023-05-15T15:02:27.921Z,7.38
2023-05-15T15:06:32.150Z,5.97
2023-05-15T15:10:36.711Z,4.65
2023-05-15T15:14:39.502Z,4.88
2023-05-15T15:18:42.647Z,10.05
2023-05-15T15:22:47.132Z,6.97
2023-05-15T15:26:49.933Z,7.32
2023-05-15T15:30:52.760Z,12.25
2023-05-15T15:34:57.158Z,13.02
2023-05-15T15:39:01.317Z,12.75
2023-05-15T15:43:04.117Z,11.98
2023-05-15T15:47:06.991Z,9.20
2023-05-15T15:51:09.953Z,5.90
2023-05-15T15:55:14.085Z,5.43
2023-05-15T15:59:16.892Z,6.10
2023-05-15T16:03:19.814Z,4.00
2023-05-15T16:07:22.697Z,7.57
2023-05-15T16:11:27.060Z,4.45
2023-05-15T16:15:29.852Z,3.33
2023-05-15T16:19:32.717Z,6.00
2023-05-15T16:23:35.983Z,5.82
2023-05-15T16:27:40.154Z,4.43
2023-05-15T16:31:43.123Z,4.40
2023-05-15T16:35:45.938Z,3.67
2023-05-15T16:39:49.055Z,4.22
2023-05-15T16:43:53.138Z,4.88
2023-05-15T16:47:56.324Z,3.08
2023-05-15T16:51:59.131Z,5.15
2023-05-15T16:56:01.968Z,4.53
2023-05-15T17:00:08.800Z,2.75
2023-05-15T17:04:11.782Z,2.90
2023-05-15T17:08:14.785Z,3.78
2023-05-15T17:12:17.595Z,3.75
2023-05-15T17:16:21.974Z,4.18
2023-05-15T17:20:24.893Z,6.80
2023-05-15T17:24:38.548Z,4.53
2023-05-15T17:28:50.574Z,3.78
2023-05-15T17:32:54.818Z,3.05
2023-05-15T17:36:57.680Z,3.55
2023-05-15T17:41:00.403Z,3.20
2023-05-15T17:45:03.304Z,4.28
2023-05-15T17:49:07.504Z,3.80
2023-05-15T17:53:10.328Z,4.15
2023-05-15T17:57:13.145Z,5.88
2023-05-15T18:01:16.007Z,4.28
2023-05-15T18:05:21.550Z,3.20
2023-05-15T18:09:24.847Z,3.65
2023-05-15T18:13:27.727Z,4.47
2023-05-15T18:17:30.562Z,4.55
2023-05-15T18:21:37.010Z,4.10
2023-05-15T18:25:40.700Z,8.15
2023-05-15T18:29:45.563Z,4.85
2023-05-15T18:33:48.505Z,5.25
2023-05-15T18:37:52.717Z,6.60
2023-05-15T18:41:55.583Z,4.95
2023-05-15T18:45:58.390Z,3.90
2023-05-15T18:50:01.148Z,6.30
2023-05-15T18:54:05.369Z,6.55
2023-05-15T18:58:08.732Z,4.82
2023-05-15T19:02:11.589Z,5.78
2023-05-15T19:06:19.777Z,5.22
2023-05-15T19:10:24.524Z,6.32
2023-05-15T19:14:27.430Z,4.00
2023-05-15T19:18:30.231Z,4.60
2023-05-15T19:22:33.204Z,3.75
2023-05-15T19:26:37.380Z,4.80
2023-05-15T19:30:40.167Z,3.35
2023-05-15T19:34:42.968Z,4.20
2023-05-15T19:38:45.951Z,4.50
2023-05-15T19:42:50.051Z,6.40
2023-05-15T19:46:54.471Z,7.00
2023-05-15T19:50:57.482Z,8.57
2023-05-15T19:55:00.288Z,27.73
2023-05-15T19:59:04.434Z,14.80
2023-05-15T20:03:07.418Z,5.32
2023-05-15T20:07:10.314Z,3.63
2023-05-15T20:11:13.136Z,6.85
2023-05-15T20:15:18.128Z,9.43
2023-05-15T20:19:24.286Z,4.85
2023-05-15T20:23:27.249Z,7.50
2023-05-15T20:27:30.065Z,5.47
2023-05-15T20:31:34.559Z,9.93
2023-05-15T20:35:38.744Z,6.85
2023-05-15T20:39:41.587Z,7.88
2023-05-15T20:43:44.400Z,8.10
2023-05-15T20:47:48.629Z,6.28
2023-05-15T20:51:51.480Z,6.55
2023-05-15T20:55:54.268Z,7.18
2023-05-15T20:59:57.044Z,4.95
2023-05-15T21:04:01.303Z,8.05
2023-05-15T21:08:04.486Z,5.30
2023-05-15T21:12:08.215Z,13.18
2023-05-15T21:16:10.986Z,6.28
2023-05-15T21:20:15.238Z,5.82
2023-05-15T21:24:18.114Z,5.70
2023-05-15T21:28:21.060Z,5.90
2023-05-15T21:32:24.154Z,10.85
2023-05-15T21:36:28.402Z,19.90
2023-05-15T21:40:31.236Z,17.35
2023-05-15T21:44:34.377Z,7.65
2023-05-15T21:48:37.136Z,7.35
2023-05-15T21:52:41.259Z,6.72
2023-05-15T21:56:43.992Z,6.57
2023-05-15T22:00:46.770Z,5.95
2023-05-15T22:04:49.567Z,6.53
2023-05-15T22:08:53.716Z,10.48
2023-05-15T22:13:02.598Z,6.60
2023-05-15T22:17:05.876Z,6.47
2023-05-15T22:21:08.620Z,8.07
2023-05-15T22:25:12.987Z,7.10
2023-05-15T22:29:15.832Z,5.93
2023-05-15T22:33:18.645Z,7.93
2023-05-15T22:37:21.775Z,5.45
2023-05-15T22:41:25.953Z,5.63
2023-05-15T22:45:28.662Z,7.25
2023-05-15T22:49:31.384Z,5.47
2023-05-15T22:53:34.622Z,7.68
2023-05-15T22:57:38.729Z,6.35
2023-05-15T23:01:41.615Z,6.10
2023-05-15T23:05:45.187Z,7.10
2023-05-15T23:09:47.933Z,8.48
2023-05-15T23:13:52.063Z,5.90
2023-05-15T23:17:54.826Z,5.57
2023-05-15T23:21:57.649Z,4.97
2023-05-15T23:26:00.408Z,6.10
2023-05-15T23:30:04.988Z,5.97
2023-05-15T23:34:08.220Z,5.45
2023-05-15T23:38:10.995Z,5.90
2023-05-15T23:42:13.724Z,7.60
2023-05-15T23:46:18.367Z,5.57
2023-05-15T23:50:21.659Z,5.70
2023-05-15T23:54:24.421Z,7.45
2023-05-15T23:58:27.138Z,10.63
